Time;durP1;ratioP1;P1;durP2;ratioP2;P2;SDS_P1;SDS_P2;PMS_P1;PMS_P2;Temp;Humidity;BMP_temperature;BMP_pressure;BME280_temperature;BME280_humidity;BME280_pressure;Samples;Min_cycle;Max_cycle;Signal;HPM_P1;HPM_P2
2023/11/14 00:01:23;;;;;;;;;;;;;;;10.07;100.00;99725.84;6186080;23;19971;-80
2023/11/14 00:04:21;;;;;;;;;;;;;;;9.98;100.00;99729.88;6184160;23;20602;-80
2023/11/14 00:07:20;;;;;;;;;;;;;;;9.96;100.00;99731.94;6183917;23;19912;-81
2023/11/14 00:10:20;;;;;;;;;;;;;;;9.86;100.00;99730.59;6187861;23;20384;-80
2023/11/14 00:12:45;;;;;;;;;;;;;;;9.85;100.00;99723.56;6186366;23;19913;-81
2023/11/14 00:15:19;;;;;;;;;;;;;;;9.73;100.00;99709.19;6187573;23;20304;-81
2023/11/14 00:17:45;;;;;;;;;;;;;;;9.80;100.00;99704.59;6187308;23;19967;-81
2023/11/14 00:23:31;;;;;;;;;;;;;;;9.95;100.00;99708.78;6206906;23;19923;-79
2023/11/14 00:26:24;;;;;;;;;;;;;;;9.98;100.00;99694.91;6190526;23;19912;-80
2023/11/14 00:28:49;;;;;;;;;;;;;;;10.13;100.00;99705.34;6184669;23;19912;-79
2023/11/14 00:31:15;;;;;;;;;;;;;;;10.26;100.00;99694.44;6185210;23;20326;-79
2023/11/14 00:33:40;;;;;;;;;;;;;;;10.23;100.00;99697.56;6183842;23;19964;-80
2023/11/14 00:36:06;;;;;;;;;;;;;;;10.29;100.00;99706.59;6183705;23;19912;-80
2023/11/14 00:38:31;;;;;;;;;;;;;;;10.35;100.00;99704.88;6186550;23;19939;-79
2023/11/14 00:41:21;;;;;;;;;;;;;;;10.33;100.00;99697.03;6183695;23;20518;-79
2023/11/14 00:43:53;;;;;;;;;;;;;;;10.25;100.00;99700.00;6184022;23;19913;-80
2023/11/14 00:46:18;;;;;;;;;;;;;;;10.21;100.00;99713.09;6184418;23;20003;-80
2023/11/14 00:48:46;;;;;;;;;;;;;;;10.37;100.00;99698.25;6186495;23;19912;-79
2023/11/14 00:54:23;;;;;;;;;;;;;;;10.30;100.00;99694.78;6189266;23;19967;-80
2023/11/14 00:57:25;;;;;;;;;;;;;;;10.26;100.00;99697.13;6184457;23;19916;-80
2023/11/14 00:59:50;;;;;;;;;;;;;;;10.26;100.00;99701.66;6153042;23;19932;-80
2023/11/14 01:02:24;;;;;;;;;;;;;;;10.32;100.00;99690.81;6183044;23;19923;-79
2023/11/14 01:04:49;;;;;;;;;;;;;;;10.37;100.00;99692.03;6183989;23;20361;-80
2023/11/14 01:07:24;;;;;;;;;;;;;;;10.36;100.00;99696.59;6184255;23;19998;-79
2023/11/14 01:09:53;;;;;;;;;;;;;;;10.38;100.00;99710.69;6182588;23;19917;-79
2023/11/14 01:12:19;;;;;;;;;;;;;;;10.33;100.00;99713.19;6178268;23;19916;-79
2023/11/14 01:15:21;;;;;;;;;;;;;;;10.42;100.00;99711.84;6185895;23;19944;-79
2023/11/14 01:17:47;;;;;;;;;;;;;;;10.41;100.00;99704.03;6185427;23;19912;-78
2023/11/14 01:20:27;;;;;;;;;;;;;;;10.48;100.00;99706.63;6187193;23;19966;-79
2023/11/14 01:26:32;;;;;;;;;;;;;;;10.48;100.00;99712.00;6157854;23;20394;-79
2023/11/14 01:28:58;;;;;;;;;;;;;;;10.49;100.00;99710.97;6185716;23;19943;-79
2023/11/14 01:31:23;;;;;;;;;;;;;;;10.42;100.00;99711.84;6183949;22;19990;-78
2023/11/14 01:34:22;;;;;;;;;;;;;;;10.38;100.00;99721.44;6185191;23;19916;-78
2023/11/14 01:36:58;;;;;;;;;;;;;;;10.44;100.00;99725.09;6184455;23;19913;-79
2023/11/14 01:39:27;;;;;;;;;;;;;;;10.50;100.00;99726.06;6185117;23;20298;-79
2023/11/14 01:41:52;;;;;;;;;;;;;;;10.53;100.00;99734.50;6184829;23;19948;-79
2023/11/14 01:44:18;;;;;;;;;;;;;;;10.51;100.00;99727.72;6186247;23;19932;-78
2023/11/14 01:46:43;;;;;;;;;;;;;;;10.51;100.00;99741.16;6189495;23;19912;-79
2023/11/14 01:52:11;;;;;;;;;;;;;;;10.59;100.00;99739.00;6186483;23;20280;-79
2023/11/14 01:54:37;;;;;;;;;;;;;;;10.68;98.93;99731.44;6158138;23;19991;-78
2023/11/14 01:57:03;;;;;;;;;;;;;;;10.61;99.36;99749.53;6158336;23;19991;-78
2023/11/14 01:59:28;;;;;;;;;;;;;;;10.63;99.40;99750.13;6156767;23;19940;-79
2023/11/14 02:01:53;;;;;;;;;;;;;;;10.65;98.89;99733.78;6183288;23;19947;-78
2023/11/14 02:04:19;;;;;;;;;;;;;;;10.65;98.99;99734.59;6183345;23;19912;-78
2023/11/14 02:06:44;;;;;;;;;;;;;;;10.66;98.93;99752.38;6156472;23;19966;-78
2023/11/14 02:09:25;;;;;;;;;;;;;;;10.68;98.81;99763.75;6157459;23;19946;-78
2023/11/14 02:11:52;;;;;;;;;;;;;;;10.77;98.03;99746.22;6155244;23;20393;-77
2023/11/14 02:14:51;;;;;;;;;;;;;;;10.71;99.08;99741.78;6184359;23;19912;-78
2023/11/14 02:17:16;;;;;;;;;;;;;;;10.67;99.09;99756.72;6184390;23;20325;-78
2023/11/14 02:19:42;;;;;;;;;;;;;;;10.67;99.56;99762.09;6182904;23;19913;-79
2023/11/14 02:22:10;;;;;;;;;;;;;;;10.64;99.39;99767.13;6185053;23;19916;-78
2023/11/14 02:24:35;;;;;;;;;;;;;;;10.61;100.00;99760.28;6159837;23;19991;-78
2023/11/14 02:27:19;;;;;;;;;;;;;;;10.59;100.00;99786.63;6156758;23;19963;-78
2023/11/14 02:29:45;;;;;;;;;;;;;;;10.66;100.00;99784.69;6185968;23;19923;-79
2023/11/14 02:32:10;;;;;;;;;;;;;;;10.58;100.00;99787.69;6184598;23;19920;-79
2023/11/14 02:34:35;;;;;;;;;;;;;;;10.57;100.00;99784.16;6183008;23;20477;-79
2023/11/14 02:37:01;;;;;;;;;;;;;;;10.43;100.00;99790.72;6186032;23;20460;-79
2023/11/14 02:39:28;;;;;;;;;;;;;;;10.34;100.00;99787.47;6185365;23;19912;-79
2023/11/14 02:41:59;;;;;;;;;;;;;;;10.19;100.00;99797.75;6184175;23;19947;-79
2023/11/14 02:44:26;;;;;;;;;;;;;;;10.05;100.00;99784.41;6169832;23;19912;-80
2023/11/14 02:47:17;;;;;;;;;;;;;;;9.94;100.00;99802.09;6184649;23;19913;-79
2023/11/14 02:52:45;;;;;;;;;;;;;;;10.01;100.00;99796.66;6186221;23;19919;-79
2023/11/14 02:55:22;;;;;;;;;;;;;;;9.97;100.00;99793.56;6184150;23;19912;-79
2023/11/14 02:57:50;;;;;;;;;;;;;;;10.01;100.00;99785.91;6185625;23;19924;-79
2023/11/14 03:00:18;;;;;;;;;;;;;;;10.07;100.00;99795.75;6185726;23;19913;-79
2023/11/14 03:02:43;;;;;;;;;;;;;;;10.02;100.00;99787.53;6184118;23;20297;-79
2023/11/14 03:05:20;;;;;;;;;;;;;;;10.14;100.00;99791.16;6184411;23;20430;-79
2023/11/14 03:10:59;;;;;;;;;;;;;;;10.05;100.00;99795.19;6092595;23;20038;-80
2023/11/14 03:13:27;;;;;;;;;;;;;;;10.11;100.00;99794.28;6093890;23;19941;-79
2023/11/14 03:15:52;;;;;;;;;;;;;;;10.15;100.00;99791.97;6167427;23;20000;-79
2023/11/14 03:18:23;;;;;;;;;;;;;;;10.02;100.00;99807.19;6185371;23;19912;-78
2023/11/14 03:20:48;;;;;;;;;;;;;;;10.06;100.00;99804.84;6184548;23;19920;-80
2023/11/14 03:23:20;;;;;;;;;;;;;;;10.03;100.00;99810.69;6183477;23;20007;-80
2023/11/14 03:25:54;;;;;;;;;;;;;;;10.13;100.00;99796.75;6182999;23;20213;-80
2023/11/14 03:28:25;;;;;;;;;;;;;;;10.14;100.00;99819.94;6184113;23;19912;-81
2023/11/14 03:30:51;;;;;;;;;;;;;;;10.04;100.00;99817.72;6184237;23;19917;-80
2023/11/14 03:33:16;;;;;;;;;;;;;;;10.02;100.00;99817.13;6184630;23;19916;-80
2023/11/14 03:36:12;;;;;;;;;;;;;;;10.06;100.00;99831.75;6185159;23;19975;-80
2023/11/14 03:38:37;;;;;;;;;;;;;;;10.00;100.00;99829.97;6183499;23;19977;-80
2023/11/14 03:41:18;;;;;;;;;;;;;;;9.95;100.00;99841.38;6184135;23;19944;-80
2023/11/14 03:43:59;;;;;;;;;;;;;;;10.06;100.00;99839.81;6185317;23;19912;-80
2023/11/14 03:46:24;;;;;;;;;;;;;;;9.97;100.00;99838.44;6184712;23;20233;-79
2023/11/14 03:51:53;;;;;;;;;;;;;;;9.85;100.00;99841.84;6205104;23;19904;-80
2023/11/14 03:57:22;;;;;;;;;;;;;;;9.69;100.00;99826.25;6184445;23;19971;-81
2023/11/14 03:59:47;;;;;;;;;;;;;;;9.72;100.00;99831.16;6184727;23;19995;-81
2023/11/14 04:02:19;;;;;;;;;;;;;;;9.79;100.00;99826.59;6185102;23;19916;-80
2023/11/14 04:04:44;;;;;;;;;;;;;;;9.73;100.00;99821.25;6184648;23;20238;-80
2023/11/14 04:07:27;;;;;;;;;;;;;;;9.68;100.00;99825.41;6187372;23;20321;-80
2023/11/14 04:09:53;;;;;;;;;;;;;;;9.71;100.00;99826.81;6185877;23;19990;-80
2023/11/14 04:12:24;;;;;;;;;;;;;;;9.79;100.00;99836.53;6192040;23;20251;-80
2023/11/14 04:20:58;;;;;;;;;;;;;;;9.88;100.00;99829.84;6184472;23;19919;-81
2023/11/14 04:23:24;;;;;;;;;;;;;;;9.89;100.00;99830.63;6184381;23;19991;-81
2023/11/14 04:25:54;;;;;;;;;;;;;;;9.88;100.00;99826.34;6183420;23;19923;-81
2023/11/14 04:28:20;;;;;;;;;;;;;;;9.86;100.00;99830.06;6185826;23;19916;-81
2023/11/14 04:30:48;;;;;;;;;;;;;;;9.79;100.00;99847.28;6183900;23;20302;-82
2023/11/14 04:33:25;;;;;;;;;;;;;;;9.80;100.00;99833.59;6184065;23;19914;-82
2023/11/14 04:35:50;;;;;;;;;;;;;;;9.81;100.00;99824.50;6190536;23;19946;-81
2023/11/14 04:38:21;;;;;;;;;;;;;;;9.82;100.00;99842.28;6198155;23;20526;-81
2023/11/14 04:40:46;;;;;;;;;;;;;;;9.84;100.00;99829.44;6213751;23;20096;-81
2023/11/14 04:43:17;;;;;;;;;;;;;;;9.89;100.00;99842.22;6217800;23;19919;-81
2023/11/14 04:45:43;;;;;;;;;;;;;;;9.88;100.00;99842.47;6215728;23;19990;-81
2023/11/14 04:54:16;;;;;;;;;;;;;;;9.97;100.00;99839.25;6214438;23;19958;-81
2023/11/14 04:59:45;;;;;;;;;;;;;;;10.04;100.00;99849.16;6221759;23;19958;-77
2023/11/14 05:02:26;;;;;;;;;;;;;;;9.97;100.00;99846.53;6216354;23;19912;-77
2023/11/14 05:04:52;;;;;;;;;;;;;;;10.02;100.00;99854.75;6215094;23;19919;-75
2023/11/14 05:10:01;;;;;;;;;;;;;;;10.04;100.00;99855.38;6217956;23;19934;-78
2023/11/14 05:15:30;;;;;;;;;;;;;;;10.17;100.00;99849.03;6228473;23;20430;-77
2023/11/14 05:21:24;;;;;;;;;;;;;;;10.16;100.00;99860.84;6220041;23;19919;-78
2023/11/14 05:23:49;;;;;;;;;;;;;;;10.23;100.00;99860.81;6215760;23;20162;-78
2023/11/14 05:26:26;;;;;;;;;;;;;;;10.29;100.00;99857.22;6215504;23;19974;-77
2023/11/14 05:28:54;;;;;;;;;;;;;;;10.35;100.00;99864.44;6213679;23;19995;-77
2023/11/14 05:31:19;;;;;;;;;;;;;;;10.31;100.00;99865.91;6215382;23;19991;-77
2023/11/14 05:33:57;;;;;;;;;;;;;;;10.35;100.00;99885.97;6215732;23;19966;-77
2023/11/14 05:36:22;;;;;;;;;;;;;;;10.35;100.00;99883.28;6215894;23;19922;-77
2023/11/14 05:38:48;;;;;;;;;;;;;;;10.32;100.00;99879.13;6217454;23;20291;-77
2023/11/14 05:41:14;;;;;;;;;;;;;;;10.36;100.00;99895.69;6223229;23;19912;-77
2023/11/14 05:43:39;;;;;;;;;;;;;;;10.32;100.00;99894.47;6224571;23;19912;-77
2023/11/14 05:46:04;;;;;;;;;;;;;;;10.38;100.00;99904.38;6218706;23;19912;-77
2023/11/14 05:48:29;;;;;;;;;;;;;;;10.21;100.00;99890.59;6215303;23;19923;-78
2023/11/14 05:50:55;;;;;;;;;;;;;;;10.20;100.00;99885.47;6215695;23;19932;-78
2023/11/14 05:53:20;;;;;;;;;;;;;;;10.21;100.00;99868.28;6216240;23;20194;-77
2023/11/14 05:55:45;;;;;;;;;;;;;;;10.26;100.00;99873.81;6214091;23;20284;-77
2023/11/14 05:58:10;;;;;;;;;;;;;;;10.16;100.00;99869.75;6222563;23;19908;-77
2023/11/14 06:00:36;;;;;;;;;;;;;;;10.07;100.00;99865.66;6230950;23;19916;-77
2023/11/14 06:03:01;;;;;;;;;;;;;;;10.02;100.00;99877.09;6217632;23;19914;-78
2023/11/14 06:05:26;;;;;;;;;;;;;;;10.12;100.00;99867.72;6216519;23;20005;-77
2023/11/14 06:07:51;;;;;;;;;;;;;;;10.14;100.00;99865.66;6215423;23;19911;-77
2023/11/14 06:10:17;;;;;;;;;;;;;;;10.12;100.00;99873.09;6215797;23;19907;-77
2023/11/14 06:12:43;;;;;;;;;;;;;;;10.04;100.00;99878.72;6215704;23;19912;-77
2023/11/14 06:15:09;;;;;;;;;;;;;;;10.02;100.00;99889.72;6189378;23;19916;-77
2023/11/14 06:17:34;;;;;;;;;;;;;;;10.03;100.00;99883.31;6215619;23;20280;-77
2023/11/14 06:19:59;;;;;;;;;;;;;;;10.12;100.00;99887.38;6215585;23;19947;-77
2023/11/14 06:22:24;;;;;;;;;;;;;;;10.17;100.00;99878.63;6215276;23;19951;-77
2023/11/14 06:24:50;;;;;;;;;;;;;;;10.19;100.00;99879.25;6214510;23;19918;-77
2023/11/14 06:27:15;;;;;;;;;;;;;;;10.20;100.00;99886.28;6217512;23;19912;-77
2023/11/14 06:29:40;;;;;;;;;;;;;;;10.12;100.00;99895.44;6217722;23;19935;-77
2023/11/14 06:32:05;;;;;;;;;;;;;;;10.18;100.00;99887.53;6215027;23;19986;-77
2023/11/14 06:34:31;;;;;;;;;;;;;;;10.10;100.00;99904.75;6215725;23;19912;-77
2023/11/14 06:39:43;;;;;;;;;;;;;;;10.20;100.00;99896.22;6206446;23;19935;-77
2023/11/14 06:42:32;;;;;;;;;;;;;;;10.18;100.00;99914.44;6217560;23;19947;-77
2023/11/14 06:44:58;;;;;;;;;;;;;;;10.24;100.00;99930.53;6216893;23;19923;-77
2023/11/14 06:47:23;;;;;;;;;;;;;;;10.23;100.00;99914.63;6198700;23;19920;-76
2023/11/14 06:49:58;;;;;;;;;;;;;;;10.24;100.00;99941.28;6217689;23;19991;-76
2023/11/14 06:52:33;;;;;;;;;;;;;;;10.29;100.00;99948.69;6216440;23;19958;-76
2023/11/14 06:54:58;;;;;;;;;;;;;;;10.27;100.00;99940.00;6214529;23;19943;-77
2023/11/14 06:57:32;;;;;;;;;;;;;;;10.28;100.00;99936.28;6217292;23;19919;-76
2023/11/14 07:00:22;;;;;;;;;;;;;;;10.41;100.00;99938.91;6215312;23;19935;-77
2023/11/14 07:11:56;;;;;;;;;;;;;;;10.43;100.00;99930.63;6214972;23;19978;-76
2023/11/14 07:14:24;;;;;;;;;;;;;;;10.34;100.00;99924.66;6215265;23;19915;-76
2023/11/14 07:16:49;;;;;;;;;;;;;;;10.37;100.00;99924.22;6215216;23;20292;-76
2023/11/14 07:19:14;;;;;;;;;;;;;;;10.35;100.00;99931.69;6216039;23;19987;-76
2023/11/14 07:21:40;;;;;;;;;;;;;;;10.24;100.00;99932.38;6215870;23;19927;-77
2023/11/14 07:24:05;;;;;;;;;;;;;;;10.27;100.00;99934.63;6215425;23;19916;-76
2023/11/14 07:26:30;;;;;;;;;;;;;;;10.30;100.00;99950.34;6215607;23;20405;-76
2023/11/14 07:28:56;;;;;;;;;;;;;;;10.37;100.00;99950.28;6214705;23;19919;-76
2023/11/14 07:31:21;;;;;;;;;;;;;;;10.50;100.00;99944.84;6214883;23;19945;-77
2023/11/14 07:33:46;;;;;;;;;;;;;;;10.54;100.00;99946.06;6215949;23;19912;-77
2023/11/14 07:36:11;;;;;;;;;;;;;;;10.55;100.00;99958.47;6214849;23;19916;-76
2023/11/14 07:38:37;;;;;;;;;;;;;;;10.39;100.00;99957.16;6215407;23;19908;-76
2023/11/14 07:41:03;;;;;;;;;;;;;;;10.54;100.00;99961.41;6215337;23;19915;-76
2023/11/14 07:43:29;;;;;;;;;;;;;;;10.57;100.00;99952.88;6214087;23;19932;-76
2023/11/14 07:45:54;;;;;;;;;;;;;;;10.60;100.00;99944.34;6188811;23;19916;-76
2023/11/14 07:48:20;;;;;;;;;;;;;;;10.49;100.00;99958.53;6215857;23;19939;-76
2023/11/14 07:50:46;;;;;;;;;;;;;;;10.49;100.00;99953.97;6215697;23;19918;-76
2023/11/14 07:53:12;;;;;;;;;;;;;;;10.50;100.00;99954.78;6217213;23;19939;-76
2023/11/14 07:55:37;;;;;;;;;;;;;;;10.43;100.00;99969.09;6217139;23;20317;-76
2023/11/14 07:58:03;;;;;;;;;;;;;;;10.56;100.00;99953.94;6216245;23;19908;-76
2023/11/14 08:00:30;;;;;;;;;;;;;;;10.49;100.00;99959.38;6216180;23;19919;-76
2023/11/14 08:02:56;;;;;;;;;;;;;;;10.42;100.00;99964.78;6218541;23;19956;-76
2023/11/14 08:05:21;;;;;;;;;;;;;;;10.39;100.00;99949.09;6217691;23;19916;-77
2023/11/14 08:07:47;;;;;;;;;;;;;;;10.37;100.00;99961.91;6216741;23;19939;-76
2023/11/14 08:10:13;;;;;;;;;;;;;;;10.33;100.00;99958.00;6216392;23;19908;-77
2023/11/14 08:12:39;;;;;;;;;;;;;;;10.33;100.00;99949.91;6215841;23;19912;-76
2023/11/14 08:15:04;;;;;;;;;;;;;;;10.32;100.00;99950.97;6215952;23;19918;-76
2023/11/14 08:17:29;;;;;;;;;;;;;;;10.43;100.00;99955.66;6213537;23;19923;-76
2023/11/14 08:19:56;;;;;;;;;;;;;;;10.47;100.00;99961.44;6215802;23;19998;-76
2023/11/14 08:22:22;;;;;;;;;;;;;;;10.53;100.00;99963.25;6216751;23;19935;-76
2023/11/14 08:24:49;;;;;;;;;;;;;;;10.38;100.00;99971.66;6214216;23;19934;-76
2023/11/14 08:27:15;;;;;;;;;;;;;;;10.44;100.00;99978.03;6215525;23;19919;-76
2023/11/14 08:29:40;;;;;;;;;;;;;;;10.59;100.00;99962.38;6215837;23;19912;-76
2023/11/14 08:32:06;;;;;;;;;;;;;;;10.57;100.00;99961.78;6218131;23;20348;-77
2023/11/14 08:34:31;;;;;;;;;;;;;;;10.60;100.00;99971.25;6232780;23;19936;-76
2023/11/14 08:36:56;;;;;;;;;;;;;;;10.54;100.00;99988.31;6221314;23;19912;-76
2023/11/14 08:39:21;;;;;;;;;;;;;;;10.39;100.00;99984.06;6220713;23;19912;-76
2023/11/14 08:41:47;;;;;;;;;;;;;;;10.33;100.00;99966.06;6218303;23;19916;-76
2023/11/14 08:44:12;;;;;;;;;;;;;;;10.18;100.00;99985.19;6217548;23;19920;-76
2023/11/14 08:46:37;;;;;;;;;;;;;;;10.14;100.00;99978.59;6213929;23;19958;-76
2023/11/14 08:49:07;;;;;;;;;;;;;;;10.12;100.00;99989.56;6216602;23;19912;-76
2023/11/14 08:51:32;;;;;;;;;;;;;;;10.26;100.00;99987.63;6215350;23;19932;-76
2023/11/14 08:53:57;;;;;;;;;;;;;;;10.34;100.00;99983.00;6214908;23;19993;-77
2023/11/14 08:56:22;;;;;;;;;;;;;;;10.26;100.00;99976.88;6218266;23;19912;-77
2023/11/14 08:58:48;;;;;;;;;;;;;;;10.17;100.00;99983.53;6219604;23;19916;-76
2023/11/14 09:01:14;;;;;;;;;;;;;;;10.40;100.00;99982.19;6226868;23;19912;-76
2023/11/14 09:03:40;;;;;;;;;;;;;;;10.30;100.00;99985.31;6222578;23;19919;-76
2023/11/14 09:06:05;;;;;;;;;;;;;;;10.43;100.00;99984.44;6218835;23;19935;-76
2023/11/14 09:08:31;;;;;;;;;;;;;;;10.39;100.00;99980.53;6215698;23;19943;-76
2023/11/14 09:10:59;;;;;;;;;;;;;;;10.42;100.00;99982.78;6215749;23;20372;-77
2023/11/14 09:13:27;;;;;;;;;;;;;;;10.37;100.00;99986.09;6216429;23;20329;-77
2023/11/14 09:15:52;;;;;;;;;;;;;;;10.36;100.00;99976.38;6218101;23;19912;-76
2023/11/14 09:18:18;;;;;;;;;;;;;;;10.44;100.00;99973.44;6219071;23;20355;-77
2023/11/14 09:20:43;;;;;;;;;;;;;;;10.38;100.00;99995.88;6219945;23;19924;-78
2023/11/14 09:23:08;;;;;;;;;;;;;;;10.35;100.00;99988.19;6223494;23;19961;-77
2023/11/14 09:25:34;;;;;;;;;;;;;;;10.36;100.00;99981.78;6228550;23;19912;-76
2023/11/14 09:28:00;;;;;;;;;;;;;;;10.53;100.00;99975.88;6230857;23;19927;-77
2023/11/14 09:30:28;;;;;;;;;;;;;;;10.51;100.00;99984.16;6221438;23;19928;-77
2023/11/14 09:32:54;;;;;;;;;;;;;;;10.58;100.00;99989.53;6219694;23;19919;-77
2023/11/14 09:35:19;;;;;;;;;;;;;;;10.77;100.00;99993.09;6162922;23;19916;-77
2023/11/14 09:37:44;;;;;;;;;;;;;;;10.81;100.00;100007.78;6215063;23;19935;-77
2023/11/14 09:40:13;;;;;;;;;;;;;;;10.87;100.00;99982.63;6214986;23;19927;-77
2023/11/14 09:42:38;;;;;;;;;;;;;;;11.18;100.00;99989.00;6188646;23;20369;-77
2023/11/14 09:45:07;;;;;;;;;;;;;;;11.29;100.00;99983.91;6209059;22;20151;-76
2023/11/14 09:47:32;;;;;;;;;;;;;;;11.49;100.00;99984.53;6184018;22;19924;-76
2023/11/14 09:49:57;;;;;;;;;;;;;;;11.70;100.00;99989.69;6154208;23;19995;-76
2023/11/14 09:52:23;;;;;;;;;;;;;;;11.51;100.00;99990.53;6154415;23;19917;-77
2023/11/14 09:54:48;;;;;;;;;;;;;;;11.47;100.00;99996.59;6152690;23;19913;-76
2023/11/14 09:57:14;;;;;;;;;;;;;;;11.50;100.00;99977.25;6127644;23;19917;-76
2023/11/14 09:59:41;;;;;;;;;;;;;;;11.55;100.00;99993.59;6152775;23;19917;-76
2023/11/14 10:02:06;;;;;;;;;;;;;;;11.67;100.00;99989.09;6154111;23;20373;-76
2023/11/14 10:04:31;;;;;;;;;;;;;;;11.67;100.00;99988.28;6153151;23;19955;-76
2023/11/14 10:06:57;;;;;;;;;;;;;;;11.92;99.23;100007.06;6152688;23;19983;-76
2023/11/14 10:09:22;;;;;;;;;;;;;;;11.81;98.78;99997.03;6154789;23;19991;-76
2023/11/14 10:11:47;;;;;;;;;;;;;;;11.72;99.65;100003.78;6176428;22;19943;-76
2023/11/14 10:17:36;;;;;;;;;;;;;;;12.23;97.52;100012.50;6198275;23;19923;-76
2023/11/14 10:23:29;;;;;;;;;;;;;;;12.54;94.62;100000.63;6184785;23;20012;-76
2023/11/14 10:25:59;;;;;;;;;;;;;;;12.29;94.78;99998.06;6184488;23;19912;-75
2023/11/14 10:28:24;;;;;;;;;;;;;;;12.39;94.85;99992.13;6156110;23;20451;-76
2023/11/14 10:30:53;;;;;;;;;;;;;;;12.55;93.34;99969.84;6156644;23;19958;-76
2023/11/14 10:33:18;;;;;;;;;;;;;;;12.39;93.89;100009.16;6184284;23;19912;-76
2023/11/14 10:35:45;;;;;;;;;;;;;;;12.08;96.57;100002.94;6184411;23;20290;-76
2023/11/14 10:38:20;;;;;;;;;;;;;;;12.05;97.23;99992.59;6183523;23;19959;-76
2023/11/14 10:40:49;;;;;;;;;;;;;;;12.05;98.35;99997.16;6184953;23;20361;-76
2023/11/14 10:43:15;;;;;;;;;;;;;;;12.11;97.83;99991.69;6185238;23;20344;-76
2023/11/14 10:45:40;;;;;;;;;;;;;;;12.16;97.67;100009.91;6158446;23;19912;-76
2023/11/14 10:48:08;;;;;;;;;;;;;;;12.21;97.02;100003.81;6186535;23;20276;-75
2023/11/14 10:55:45;;;;;;;;;;;;;;;12.82;92.09;99991.06;6186552;22;19920;-75
2023/11/14 10:58:11;;;;;;;;;;;;;;;12.76;91.00;99973.06;6184529;23;19920;-75
2023/11/14 11:20:33;;;;;;;;;;;;;;;12.83;89.75;99952.19;6182916;23;19950;-75
2023/11/14 11:23:02;;;;;;;;;;;;;;;12.47;91.54;99964.81;6159358;22;20383;-76
2023/11/14 11:25:29;;;;;;;;;;;;;;;12.22;92.21;99970.38;6157041;23;20016;-76
2023/11/14 11:27:54;;;;;;;;;;;;;;;12.19;93.47;99968.94;6155945;23;19944;-76
2023/11/14 11:30:19;;;;;;;;;;;;;;;12.17;93.30;99968.38;6156719;23;19916;-75
2023/11/14 11:33:17;;;;;;;;;;;;;;;12.03;93.95;99961.50;6196595;22;19990;-75
2023/11/14 11:48:24;;;;;;;;;;;;;;;11.84;98.89;99939.94;6130551;23;19940;-76
2023/11/14 12:02:25;;;;;;;;;;;;;;;11.86;98.68;99953.19;6197522;22;19920;-76
2023/11/14 12:22:30;;;;;;;;;;;;;;;11.33;100.00;99934.75;6208643;22;19942;-76
2023/11/14 12:24:58;;;;;;;;;;;;;;;10.84;100.00;99939.19;6201621;23;19917;-76
2023/11/14 12:27:24;;;;;;;;;;;;;;;10.84;100.00;99944.56;6187119;23;19919;-76
2023/11/14 12:30:17;;;;;;;;;;;;;;;10.67;100.00;99934.38;6189135;23;19912;-77
2023/11/14 12:36:11;;;;;;;;;;;;;;;10.79;100.00;99931.78;6184272;23;19967;-77
2023/11/14 12:38:40;;;;;;;;;;;;;;;10.98;100.00;99911.06;6175315;23;19923;-77
2023/11/14 12:41:31;;;;;;;;;;;;;;;11.00;100.00;99900.91;6185013;23;20325;-79
2023/11/14 12:43:57;;;;;;;;;;;;;;;11.05;100.00;99909.16;6184253;23;19913;-79
2023/11/14 12:46:22;;;;;;;;;;;;;;;11.01;100.00;99913.34;6184251;23;20214;-76
2023/11/14 12:49:05;;;;;;;;;;;;;;;11.11;100.00;99902.03;6184961;23;19971;-77
2023/11/14 12:51:31;;;;;;;;;;;;;;;11.11;100.00;99882.38;6184458;23;19913;-78
2023/11/14 12:53:56;;;;;;;;;;;;;;;11.18;100.00;99885.81;6185119;23;19950;-78
2023/11/14 12:56:22;;;;;;;;;;;;;;;11.24;100.00;99879.53;6187924;23;19912;-78
2023/11/14 12:58:47;;;;;;;;;;;;;;;11.13;100.00;99885.66;6186714;23;20284;-79
2023/11/14 13:01:13;;;;;;;;;;;;;;;11.01;100.00;99890.97;6188634;23;19912;-79
2023/11/14 13:03:38;;;;;;;;;;;;;;;11.03;100.00;99891.59;6185240;23;19995;-76
2023/11/14 13:06:04;;;;;;;;;;;;;;;11.19;100.00;99882.06;6182778;23;19944;-76
2023/11/14 13:08:29;;;;;;;;;;;;;;;11.09;100.00;99876.38;6184798;23;19919;-76
2023/11/14 13:10:54;;;;;;;;;;;;;;;11.00;100.00;99868.59;6184910;23;19908;-76
2023/11/14 13:13:19;;;;;;;;;;;;;;;11.07;100.00;99882.81;6183403;23;19927;-76
2023/11/14 13:15:46;;;;;;;;;;;;;;;10.97;100.00;99882.50;6184654;23;19912;-79
2023/11/14 13:18:11;;;;;;;;;;;;;;;11.11;100.00;99895.84;6184802;23;19912;-79
2023/11/14 13:20:37;;;;;;;;;;;;;;;11.01;100.00;99875.63;6183181;23;20165;-75
2023/11/14 13:23:03;;;;;;;;;;;;;;;10.99;100.00;99874.22;6184935;23;19920;-76
2023/11/14 13:25:28;;;;;;;;;;;;;;;10.94;100.00;99874.91;6210307;22;19923;-78
2023/11/14 13:27:53;;;;;;;;;;;;;;;11.06;100.00;99878.47;6186055;23;19929;-77
2023/11/14 13:30:41;;;;;;;;;;;;;;;11.26;100.00;99866.66;6186801;23;19918;-77
2023/11/14 13:33:15;;;;;;;;;;;;;;;11.22;100.00;99868.16;6166321;23;19916;-76
2023/11/14 13:35:40;;;;;;;;;;;;;;;11.25;100.00;99870.41;6182255;23;20222;-77
2023/11/14 13:38:14;;;;;;;;;;;;;;;11.35;100.00;99859.09;6183925;23;19919;-77
2023/11/14 13:40:48;;;;;;;;;;;;;;;11.31;100.00;99869.47;6156844;23;19995;-77
2023/11/14 13:45:42;;;;;;;;;;;;;;;11.38;100.00;99848.66;6183804;23;19920;-76
2023/11/14 13:48:29;;;;;;;;;;;;;;;11.21;100.00;99853.03;6183240;23;20230;-76
2023/11/14 13:50:54;;;;;;;;;;;;;;;11.16;100.00;99855.56;6183168;23;19923;-76
2023/11/14 13:53:19;;;;;;;;;;;;;;;11.28;100.00;99853.78;6184211;23;19913;-76
2023/11/14 13:55:45;;;;;;;;;;;;;;;11.29;100.00;99836.56;6183364;23;19951;-76
2023/11/14 13:58:10;;;;;;;;;;;;;;;11.22;100.00;99844.72;6183471;22;20395;-77
2023/11/14 14:00:35;;;;;;;;;;;;;;;11.14;100.00;99846.88;6184145;23;19916;-77
2023/11/14 14:03:03;;;;;;;;;;;;;;;11.05;100.00;99838.28;6183631;23;20063;-77
2023/11/14 14:05:28;;;;;;;;;;;;;;;11.19;100.00;99844.34;6183275;23;20270;-76
2023/11/14 14:07:54;;;;;;;;;;;;;;;11.22;100.00;99844.72;6183387;23;19990;-76
2023/11/14 14:10:19;;;;;;;;;;;;;;;11.21;100.00;99847.66;6183770;23;19917;-76
2023/11/14 14:12:47;;;;;;;;;;;;;;;11.19;100.00;99847.88;6183627;23;19960;-77
2023/11/14 14:15:16;;;;;;;;;;;;;;;11.21;100.00;99842.25;6183367;23;19919;-76
2023/11/14 14:17:41;;;;;;;;;;;;;;;11.12;100.00;99843.63;6183219;23;20345;-76
2023/11/14 14:20:14;;;;;;;;;;;;;;;11.25;99.07;99839.91;6185636;23;19916;-76
2023/11/14 14:22:39;;;;;;;;;;;;;;;11.10;99.51;99830.38;6185713;23;19995;-76
2023/11/14 14:25:10;;;;;;;;;;;;;;;11.17;100.00;99838.38;6185921;23;19955;-78
2023/11/14 14:27:36;;;;;;;;;;;;;;;11.11;99.91;99837.41;6187062;23;19916;-77
2023/11/14 14:30:03;;;;;;;;;;;;;;;10.99;100.00;99826.56;6200467;23;19949;-77
2023/11/14 14:32:29;;;;;;;;;;;;;;;11.01;100.00;99827.16;6196395;23;19916;-76
2023/11/14 14:34:54;;;;;;;;;;;;;;;10.90;100.00;99825.22;6186169;23;19919;-77
2023/11/14 14:37:19;;;;;;;;;;;;;;;10.94;100.00;99825.59;6184224;23;19916;-77
2023/11/14 14:39:44;;;;;;;;;;;;;;;11.03;100.00;99814.28;6186727;23;19919;-77
2023/11/14 14:42:10;;;;;;;;;;;;;;;10.92;100.00;99828.50;6186064;23;19912;-77
2023/11/14 14:44:40;;;;;;;;;;;;;;;10.95;100.00;99822.66;6184963;23;19936;-77
2023/11/14 14:47:05;;;;;;;;;;;;;;;11.02;100.00;99807.25;6186616;23;19913;-76
2023/11/14 14:49:30;;;;;;;;;;;;;;;10.93;100.00;99805.94;6185388;23;19920;-77
2023/11/14 14:51:56;;;;;;;;;;;;;;;10.97;100.00;99798.22;6184197;23;20342;-77
2023/11/14 14:54:22;;;;;;;;;;;;;;;11.02;100.00;99799.19;6186661;23;19916;-77
2023/11/14 14:56:47;;;;;;;;;;;;;;;10.90;100.00;99819.84;6185530;23;19947;-77
2023/11/14 14:59:13;;;;;;;;;;;;;;;10.70;100.00;99804.72;6184136;23;20239;-77
2023/11/14 15:01:38;;;;;;;;;;;;;;;10.61;100.00;99792.59;6186658;23;20219;-77
2023/11/14 15:04:04;;;;;;;;;;;;;;;10.52;100.00;99792.06;6184916;23;20233;-77
2023/11/14 15:06:29;;;;;;;;;;;;;;;10.53;100.00;99798.28;6184426;22;19924;-77